createdAt,value
2018-09-24T00:00:51.985Z,99.99
2018-09-24T00:01:51.979Z,99.99
2018-09-24T00:02:51.973Z,99.99
2018-09-24T00:03:51.964Z,99.99
2018-09-24T00:04:51.959Z,99.99
2018-09-24T00:05:51.954Z,99.99
2018-09-24T00:06:51.953Z,99.99
2018-09-24T00:07:51.943Z,99.99
2018-09-24T00:08:51.935Z,99.99
2018-09-24T00:09:51.938Z,99.99
2018-09-24T00:10:51.927Z,99.99
2018-09-24T00:11:51.921Z,99.99
2018-09-24T00:12:51.915Z,99.99
2018-09-24T00:13:51.910Z,99.99
2018-09-24T00:14:51.909Z,99.99
2018-09-24T00:15:51.901Z,99.99
2018-09-24T00:16:51.894Z,99.99
2018-09-24T00:17:51.888Z,99.99
2018-09-24T00:18:51.882Z,99.99
2018-09-24T00:19:51.878Z,99.99
2018-09-24T00:20:51.870Z,99.99
2018-09-24T00:21:51.868Z,99.99
2018-09-24T00:22:51.863Z,99.99
2018-09-24T00:23:51.857Z,99.55
2018-09-24T00:24:51.850Z,99.37
2018-09-24T00:25:51.845Z,99.84
2018-09-24T00:26:51.839Z,99.65
2018-09-24T00:27:51.833Z,99.18
2018-09-24T00:28:51.828Z,99.55
2018-09-24T00:29:52.703Z,98.99
2018-09-24T00:30:51.818Z,98.70
2018-09-24T00:31:51.812Z,98.99
2018-09-24T00:32:51.809Z,99.55
2018-09-24T00:33:51.805Z,99.55
2018-09-24T00:34:51.798Z,98.99
2018-09-24T00:35:51.792Z,99.08
2018-09-24T00:36:51.785Z,98.41
2018-09-24T00:37:51.781Z,98.51
2018-09-24T00:38:51.779Z,99.37
2018-09-24T00:39:51.768Z,99.46
2018-09-24T00:40:51.764Z,99.55
2018-09-24T00:41:51.761Z,99.84
2018-09-24T00:42:51.754Z,99.27
2018-09-24T00:43:51.748Z,99.27
2018-09-24T00:44:51.745Z,99.37
2018-09-24T00:45:51.737Z,99.65
2018-09-24T00:46:51.736Z,99.75
2018-09-24T00:47:51.727Z,99.99
2018-09-24T00:48:51.725Z,99.55
2018-09-24T00:49:51.716Z,99.84
2018-09-24T00:50:51.711Z,99.99
2018-09-24T00:51:51.705Z,99.94
2018-09-24T00:52:51.700Z,99.65
2018-09-24T00:53:51.696Z,99.84
2018-09-24T00:54:51.690Z,99.75
2018-09-24T00:55:51.685Z,99.99
2018-09-24T00:56:51.678Z,99.99
2018-09-24T00:57:51.673Z,99.99
2018-09-24T00:58:51.669Z,99.75
2018-09-24T00:59:51.664Z,99.60
2018-09-24T01:00:51.659Z,99.55
2018-09-24T01:01:51.653Z,99.99
2018-09-24T01:02:51.651Z,99.79
2018-09-24T01:03:51.645Z,99.99
2018-09-24T01:04:51.637Z,99.99
2018-09-24T01:05:51.630Z,99.99
2018-09-24T01:06:51.627Z,99.99
2018-09-24T01:07:51.622Z,99.94
2018-09-24T01:08:51.618Z,99.98
2018-09-24T01:09:51.614Z,99.99
2018-09-24T01:10:51.606Z,99.99
2018-09-24T01:11:51.599Z,99.99
2018-09-24T01:12:51.597Z,99.99
2018-09-24T01:13:51.588Z,99.99
2018-09-24T01:14:51.583Z,99.99
2018-09-24T01:15:51.578Z,99.99
2018-09-24T01:16:51.572Z,99.46
2018-09-24T01:17:51.568Z,99.99
2018-09-24T01:18:51.564Z,99.94
2018-09-24T01:19:51.560Z,99.99
2018-09-24T01:20:51.552Z,99.99
2018-09-24T01:21:51.545Z,99.84
2018-09-24T01:22:51.544Z,99.37
2018-09-24T01:23:51.535Z,99.84
2018-09-24T01:24:51.532Z,99.99
2018-09-24T01:25:51.526Z,99.18
2018-09-24T01:26:51.523Z,98.79
2018-09-24T01:27:51.515Z,98.89
2018-09-24T01:28:51.507Z,98.60
2018-09-24T01:29:51.503Z,98.32
2018-09-24T01:30:51.499Z,98.99
2018-09-24T01:31:51.492Z,98.70
2018-09-24T01:32:51.487Z,99.37
2018-09-24T01:33:51.485Z,98.70
2018-09-24T01:34:51.477Z,99.65
2018-09-24T01:35:51.472Z,99.84
2018-09-24T01:36:51.467Z,99.65
2018-09-24T01:37:51.461Z,99.99
2018-09-24T01:38:51.456Z,99.99
2018-09-24T01:39:51.451Z,99.65
2018-09-24T01:40:51.449Z,98.70
2018-09-24T01:41:51.440Z,98.99
2018-09-24T01:42:51.442Z,99.18
2018-09-24T01:43:51.429Z,98.41
2018-09-24T01:44:51.424Z,98.89
2018-09-24T01:45:51.418Z,99.65
2018-09-24T01:46:51.415Z,98.89
2018-09-24T01:47:51.411Z,99.46
2018-09-24T01:48:51.403Z,99.84
2018-09-24T01:49:51.397Z,99.99
2018-09-24T01:50:51.392Z,99.27
2018-09-24T01:51:51.395Z,99.55
2018-09-24T01:52:51.381Z,99.94
2018-09-24T01:53:51.376Z,99.94
2018-09-24T01:54:51.372Z,99.46
2018-09-24T01:55:51.366Z,99.18
2018-09-24T01:56:51.361Z,99.37
2018-09-24T01:57:51.357Z,99.18
2018-09-24T01:58:51.353Z,98.03
2018-09-24T01:59:51.345Z,97.36
2018-09-24T02:00:51.343Z,97.94
2018-09-24T02:01:51.842Z,98.13
2018-09-24T02:02:51.330Z,97.84
2018-09-24T02:03:51.326Z,96.89
2018-09-24T02:04:51.319Z,96.98
2018-09-24T02:05:51.315Z,96.41
2018-09-24T02:06:51.311Z,96.32
2018-09-24T02:07:51.305Z,97.17
2018-09-24T02:08:51.301Z,97.27
2018-09-24T02:09:51.296Z,96.70
2018-09-24T02:10:51.292Z,96.51
2018-09-24T02:11:51.284Z,96.03
2018-09-24T02:12:51.279Z,96.12
2018-09-24T02:13:51.273Z,96.12
2018-09-24T02:14:51.271Z,95.08
2018-09-24T02:15:51.261Z,95.08
2018-09-24T02:16:51.258Z,96.22
2018-09-24T02:17:51.256Z,96.51
2018-09-24T02:18:51.259Z,96.32
2018-09-24T02:19:51.240Z,95.46
2018-09-24T02:20:51.236Z,95.65
2018-09-24T02:21:51.230Z,95.27
2018-09-24T02:22:51.228Z,95.84
2018-09-24T02:23:51.219Z,95.46
2018-09-24T02:24:51.215Z,94.89
2018-09-24T02:25:51.211Z,95.65
2018-09-24T02:26:51.220Z,94.51
2018-09-24T02:27:51.201Z,94.98
2018-09-24T02:28:51.196Z,95.46
2018-09-24T02:29:51.189Z,95.08
2018-09-24T02:30:51.185Z,95.46
2018-09-24T02:31:51.182Z,94.60
2018-09-24T02:32:51.175Z,94.98
2018-09-24T02:33:51.169Z,94.13
2018-09-24T02:34:51.169Z,94.13
2018-09-24T02:35:51.159Z,94.13
2018-09-24T02:36:51.157Z,94.89
2018-09-24T02:37:51.149Z,94.41
2018-09-24T02:38:51.147Z,94.03
2018-09-24T02:39:51.140Z,94.03
2018-09-24T02:40:51.134Z,94.41
2018-09-24T02:41:51.128Z,93.55
2018-09-24T02:42:51.124Z,93.37
2018-09-24T02:43:51.120Z,93.84
2018-09-24T02:44:51.114Z,94.41
2018-09-24T02:45:51.108Z,93.93
2018-09-24T02:46:51.103Z,94.51
2018-09-24T02:47:51.099Z,93.74
2018-09-24T02:48:51.091Z,94.13
2018-09-24T02:49:51.086Z,94.13
2018-09-24T02:50:51.082Z,93.74
2018-09-24T02:51:51.111Z,94.32
2018-09-24T02:52:51.071Z,93.46
2018-09-24T02:53:51.065Z,93.74
2018-09-24T02:54:51.061Z,92.89
2018-09-24T02:55:51.055Z,92.79
2018-09-24T02:56:51.049Z,93.60
2018-09-24T02:57:51.046Z,93.84
2018-09-24T02:58:51.039Z,92.98
2018-09-24T02:59:51.034Z,92.89
2018-09-24T03:00:51.036Z,92.98
2018-09-24T03:01:51.025Z,93.17
2018-09-24T03:02:51.021Z,92.50
2018-09-24T03:03:51.017Z,93.84
2018-09-24T03:04:51.012Z,94.03
2018-09-24T03:05:51.006Z,92.89
2018-09-24T03:06:51.001Z,92.60
2018-09-24T03:07:50.994Z,93.32
2018-09-24T03:08:50.989Z,92.60
2018-09-24T03:09:50.983Z,92.32
2018-09-24T03:10:50.982Z,92.32
2018-09-24T03:11:50.975Z,92.08
2018-09-24T03:12:50.972Z,91.84
2018-09-24T03:13:50.963Z,92.22
2018-09-24T03:14:50.959Z,91.74
2018-09-24T03:15:50.953Z,91.84
2018-09-24T03:16:50.949Z,92.03
2018-09-24T03:17:50.943Z,91.98
2018-09-24T03:18:50.937Z,92.13
2018-09-24T03:19:50.935Z,92.08
2018-09-24T03:20:50.927Z,91.36
2018-09-24T03:21:50.923Z,91.31
2018-09-24T03:22:50.918Z,91.22
2018-09-24T03:23:50.912Z,92.17
2018-09-24T03:24:50.909Z,92.17
2018-09-24T03:25:50.901Z,91.31
2018-09-24T03:26:50.900Z,91.22
2018-09-24T03:27:50.891Z,91.31
2018-09-24T03:28:50.889Z,90.98
2018-09-24T03:29:50.882Z,91.22
2018-09-24T03:30:50.885Z,91.13
2018-09-24T03:31:50.876Z,90.84
2018-09-24T03:32:50.866Z,91.41
2018-09-24T03:33:51.006Z,90.84
2018-09-24T03:34:50.857Z,90.74
2018-09-24T03:35:50.853Z,90.45
2018-09-24T03:36:50.848Z,90.45
2018-09-24T03:37:50.841Z,90.74
2018-09-24T03:38:50.840Z,91.13
2018-09-24T03:39:50.832Z,90.84
2018-09-24T03:40:50.831Z,90.64
2018-09-24T03:41:50.844Z,90.45
2018-09-24T03:42:50.815Z,90.36
2018-09-24T03:43:50.810Z,90.08
2018-09-24T03:44:50.805Z,90.55
2018-09-24T03:45:50.801Z,90.45
2018-09-24T03:46:50.796Z,90.55
2018-09-24T03:47:50.791Z,90.45
2018-09-24T03:48:50.785Z,90.08
2018-09-24T03:49:50.783Z,90.45
2018-09-24T03:50:50.776Z,90.08
2018-09-24T03:51:50.769Z,90.08
2018-09-24T03:52:50.764Z,90.17
2018-09-24T03:53:50.760Z,89.98
2018-09-24T03:54:50.755Z,90.26
2018-09-24T03:55:50.750Z,89.98
2018-09-24T03:56:50.745Z,89.89
2018-09-24T03:57:50.742Z,89.89
2018-09-24T03:58:50.787Z,89.98
2018-09-24T03:59:50.728Z,90.08
2018-09-24T04:00:50.726Z,89.79
2018-09-24T04:01:50.721Z,90.17
2018-09-24T04:02:50.716Z,90.17
2018-09-24T04:03:50.713Z,90.26
2018-09-24T04:04:51.409Z,90.08
2018-09-24T04:05:50.699Z,90.08
2018-09-24T04:06:50.696Z,89.89
2018-09-24T04:07:50.696Z,89.89
2018-09-24T04:08:50.688Z,90.17
2018-09-24T04:09:50.755Z,89.98
2018-09-24T04:10:50.738Z,90.17
2018-09-24T04:11:50.670Z,89.89
2018-09-24T04:12:50.669Z,89.60
2018-09-24T04:13:50.661Z,89.69
2018-09-24T04:14:50.657Z,89.98
2018-09-24T04:15:50.652Z,89.69
2018-09-24T04:16:50.647Z,89.50
2018-09-24T04:17:50.641Z,89.79
2018-09-24T04:18:50.637Z,89.60
2018-09-24T04:19:50.632Z,89.60
2018-09-24T04:20:50.627Z,89.40
2018-09-24T04:21:50.622Z,89.22
2018-09-24T04:22:50.620Z,89.50
2018-09-24T04:23:50.611Z,89.22
2018-09-24T04:24:50.609Z,89.98
2018-09-24T04:25:50.602Z,89.60
2018-09-24T04:26:50.599Z,89.69
2018-09-24T04:27:50.592Z,89.98
2018-09-24T04:28:50.591Z,89.31
2018-09-24T04:29:50.595Z,89.22
2018-09-24T04:30:50.583Z,89.31
2018-09-24T04:31:50.575Z,89.40
2018-09-24T04:32:50.569Z,89.31
2018-09-24T04:33:50.566Z,89.31
2018-09-24T04:34:50.559Z,88.84
2018-09-24T04:35:50.556Z,88.45
2018-09-24T04:36:50.559Z,89.12
2018-09-24T04:37:50.546Z,88.84
2018-09-24T04:38:50.540Z,89.31
2018-09-24T04:39:50.535Z,89.31
2018-09-24T04:40:50.535Z,89.12
2018-09-24T04:41:50.528Z,88.93
2018-09-24T04:42:50.520Z,89.31
2018-09-24T04:43:50.514Z,89.31
2018-09-24T04:44:50.510Z,88.93
2018-09-24T04:45:50.505Z,89.12
2018-09-24T04:46:50.501Z,88.64
2018-09-24T04:47:50.495Z,88.93
2018-09-24T04:48:50.492Z,89.12
2018-09-24T04:49:50.486Z,89.12
2018-09-24T04:50:50.485Z,89.12
2018-09-24T04:51:50.478Z,88.84
2018-09-24T04:52:50.471Z,89.03
2018-09-24T04:53:50.468Z,89.03
2018-09-24T04:54:50.465Z,88.74
2018-09-24T04:55:50.457Z,88.74
2018-09-24T04:56:50.455Z,89.03
2018-09-24T04:57:50.452Z,88.84
2018-09-24T04:58:50.452Z,88.93
2018-09-24T04:59:50.438Z,88.64
2018-09-24T05:00:50.444Z,88.93
2018-09-24T05:01:50.428Z,88.07
2018-09-24T05:02:50.425Z,88.45
2018-09-24T05:03:50.424Z,88.26
2018-09-24T05:04:50.415Z,88.93
2018-09-24T05:05:50.411Z,88.36
2018-09-24T05:06:50.408Z,88.45
2018-09-24T05:07:50.404Z,88.55
2018-09-24T05:08:50.395Z,87.88
2018-09-24T05:09:50.401Z,88.26
2018-09-24T05:10:50.387Z,88.07
2018-09-24T05:11:50.382Z,88.07
2018-09-24T05:12:50.378Z,88.36
2018-09-24T05:13:50.371Z,87.88
2018-09-24T05:14:50.367Z,87.98
2018-09-24T05:15:50.362Z,87.88
2018-09-24T05:16:50.358Z,88.45
2018-09-24T05:17:50.355Z,88.45
2018-09-24T05:18:50.348Z,88.12
2018-09-24T05:19:50.343Z,87.83
2018-09-24T05:20:50.342Z,88.12
2018-09-24T05:21:50.336Z,88.12
2018-09-24T05:22:50.329Z,87.64
2018-09-24T05:23:50.324Z,88.02
2018-09-24T05:24:50.319Z,88.12
2018-09-24T05:25:50.315Z,87.26
2018-09-24T05:26:50.311Z,87.45
2018-09-24T05:27:50.304Z,88.21
2018-09-24T05:28:50.301Z,87.83
2018-09-24T05:29:50.299Z,87.74
2018-09-24T05:30:50.292Z,88.12
2018-09-24T05:31:50.286Z,88.02
2018-09-24T05:32:50.282Z,87.93
2018-09-24T05:33:50.277Z,88.02
2018-09-24T05:34:50.298Z,88.02
2018-09-24T05:35:50.267Z,87.74
2018-09-24T05:36:50.549Z,87.74
2018-09-24T05:37:50.261Z,88.02
2018-09-24T05:38:50.255Z,88.31
2018-09-24T05:39:50.249Z,88.21
2018-09-24T05:40:50.245Z,87.64
2018-09-24T05:41:50.243Z,88.31
2018-09-24T05:42:50.236Z,87.74
2018-09-24T05:43:50.234Z,87.83
2018-09-24T05:44:50.229Z,87.83
2018-09-24T05:45:50.229Z,88.50
2018-09-24T05:46:50.218Z,88.02
2018-09-24T05:47:50.227Z,88.50
2018-09-24T05:48:50.207Z,87.93
2018-09-24T05:49:50.204Z,88.12
2018-09-24T05:50:50.240Z,87.83
2018-09-24T05:51:50.204Z,88.02
2018-09-24T05:52:50.190Z,87.93
2018-09-24T05:53:50.187Z,87.83
2018-09-24T05:54:50.180Z,87.93
2018-09-24T05:55:50.179Z,88.02
2018-09-24T05:56:50.173Z,88.02
2018-09-24T05:57:50.170Z,87.93
2018-09-24T05:58:50.163Z,88.02
2018-09-24T05:59:50.170Z,87.88
2018-09-24T06:00:50.152Z,87.35
2018-09-24T06:01:50.150Z,87.16
2018-09-24T06:02:50.176Z,88.07
2018-09-24T06:03:50.138Z,87.98
2018-09-24T06:04:50.133Z,87.60
2018-09-24T06:05:50.153Z,87.31
2018-09-24T06:06:50.137Z,87.79
2018-09-24T06:07:50.909Z,88.45
2018-09-24T06:08:50.115Z,87.88
2018-09-24T06:09:50.112Z,87.98
2018-09-24T06:10:50.112Z,88.07
2018-09-24T06:11:50.100Z,87.88
2018-09-24T06:12:50.096Z,87.69
2018-09-24T06:13:50.092Z,87.98
2018-09-24T06:14:50.091Z,87.69
2018-09-24T06:15:50.083Z,87.79
2018-09-24T06:16:50.096Z,88.07
2018-09-24T06:17:50.073Z,87.88
2018-09-24T06:18:50.084Z,88.07
2018-09-24T06:19:50.071Z,87.50
2018-09-24T06:20:50.059Z,87.50
2018-09-24T06:21:50.077Z,87.12
2018-09-24T06:22:50.050Z,87.50
2018-09-24T06:23:50.044Z,87.31
2018-09-24T06:24:50.043Z,87.40
2018-09-24T06:25:50.035Z,87.74
2018-09-24T06:26:50.033Z,87.64
2018-09-24T06:27:50.025Z,87.74
2018-09-24T06:28:50.021Z,87.54
2018-09-24T06:29:50.016Z,86.88
2018-09-24T06:30:50.015Z,86.69
2018-09-24T06:31:50.006Z,86.78
2018-09-24T06:32:50.002Z,86.78
2018-09-24T06:33:50.001Z,86.88
2018-09-24T06:34:49.995Z,86.59
2018-09-24T06:35:49.996Z,86.78
2018-09-24T06:36:50.009Z,86.21
2018-09-24T06:37:49.981Z,87.07
2018-09-24T06:38:49.975Z,86.98
2018-09-24T06:39:49.973Z,86.88
2018-09-24T06:40:49.966Z,86.88
2018-09-24T06:41:49.966Z,86.78
2018-09-24T06:42:49.958Z,87.35
2018-09-24T06:43:49.953Z,87.93
2018-09-24T06:44:49.950Z,87.64
2018-09-24T06:45:49.945Z,87.45
2018-09-24T06:46:49.941Z,87.35
2018-09-24T06:47:49.935Z,87.54
2018-09-24T06:48:49.947Z,87.74
2018-09-24T06:49:49.926Z,88.31
2018-09-24T06:50:49.925Z,88.40
2018-09-24T06:51:49.916Z,88.12
2018-09-24T06:52:49.912Z,88.12
2018-09-24T06:53:49.907Z,87.93
2018-09-24T06:54:49.903Z,87.50
2018-09-24T06:55:49.897Z,87.40
2018-09-24T06:56:49.896Z,88.07
2018-09-24T06:57:49.888Z,88.36
2018-09-24T06:58:49.885Z,88.02
2018-09-24T06:59:49.882Z,87.93
2018-09-24T07:00:49.873Z,88.07
2018-09-24T07:01:49.871Z,87.93
2018-09-24T07:02:49.868Z,87.93
2018-09-24T07:03:49.863Z,87.35
2018-09-24T07:04:49.855Z,86.78
2018-09-24T07:05:49.919Z,86.88
2018-09-24T07:06:49.849Z,86.78
2018-09-24T07:07:49.843Z,86.59
2018-09-24T07:08:49.842Z,86.49
2018-09-24T07:09:49.833Z,86.78
2018-09-24T07:10:49.829Z,86.59
2018-09-24T07:11:49.831Z,86.11
2018-09-24T07:12:49.820Z,86.40
2018-09-24T07:13:49.815Z,85.83
2018-09-24T07:14:49.811Z,85.64
2018-09-24T07:15:49.807Z,84.88
2018-09-24T07:16:49.804Z,85.35
2018-09-24T07:17:49.798Z,85.45
2018-09-24T07:18:49.793Z,85.06
2018-09-24T07:19:49.786Z,85.16
2018-09-24T07:20:49.781Z,85.16
2018-09-24T07:21:49.778Z,85.35
2018-09-24T07:22:49.774Z,85.54
2018-09-24T07:23:49.767Z,85.16
2018-09-24T07:24:49.762Z,85.54
2018-09-24T07:25:49.761Z,85.83
2018-09-24T07:26:49.762Z,84.78
2018-09-24T07:27:49.787Z,84.97
2018-09-24T07:28:49.743Z,85.16
2018-09-24T07:29:49.761Z,85.73
2018-09-24T07:30:49.736Z,85.16
2018-09-24T07:31:49.729Z,85.25
2018-09-24T07:32:49.724Z,85.64
2018-09-24T07:33:49.722Z,85.54
2018-09-24T07:34:49.718Z,85.45
2018-09-24T07:35:49.712Z,85.83
2018-09-24T07:36:49.709Z,86.11
2018-09-24T07:37:49.702Z,85.64
2018-09-24T07:38:49.700Z,85.83
2018-09-24T07:39:50.106Z,85.54
2018-09-24T07:40:49.700Z,85.45
2018-09-24T07:41:49.684Z,85.45
2018-09-24T07:42:49.679Z,86.11
2018-09-24T07:43:49.674Z,85.06
2018-09-24T07:44:49.670Z,85.16
2018-09-24T07:45:49.665Z,84.30
2018-09-24T07:46:49.659Z,84.11
2018-09-24T07:47:49.656Z,84.53
2018-09-24T07:48:49.657Z,83.87
2018-09-24T07:49:49.646Z,83.87
2018-09-24T07:50:49.642Z,83.96
2018-09-24T07:51:49.636Z,83.58
2018-09-24T07:52:49.643Z,83.67
2018-09-24T07:53:49.693Z,83.39
2018-09-24T07:54:49.624Z,83.77
2018-09-24T07:55:49.620Z,82.82
2018-09-24T07:56:49.616Z,83.11
2018-09-24T07:57:49.615Z,82.06
2018-09-24T07:58:49.608Z,82.43
2018-09-24T07:59:49.601Z,82.34
2018-09-24T08:00:49.632Z,82.34
2018-09-24T08:01:49.593Z,82.15
2018-09-24T08:02:49.590Z,82.15
2018-09-24T08:03:49.592Z,83.11
2018-09-24T08:04:49.584Z,83.01
2018-09-24T08:05:49.575Z,82.34
2018-09-24T08:06:49.578Z,82.15
2018-09-24T08:07:49.598Z,81.67
2018-09-24T08:08:49.565Z,81.20
2018-09-24T08:09:49.558Z,81.67
2018-09-24T08:10:50.478Z,81.58
2018-09-24T08:11:49.552Z,81.33
2018-09-24T08:12:49.571Z,81.62
2018-09-24T08:13:49.545Z,81.14
2018-09-24T08:14:49.543Z,79.99
2018-09-24T08:15:49.539Z,79.33
2018-09-24T08:16:49.537Z,79.23
2018-09-24T08:17:49.537Z,78.75
2018-09-24T08:18:49.530Z,78.94
2018-09-24T08:19:49.521Z,79.04
2018-09-24T08:20:49.525Z,79.04
2018-09-24T08:21:49.515Z,79.04
2018-09-24T08:22:49.511Z,79.04
2018-09-24T08:23:49.501Z,79.61
2018-09-24T08:24:49.874Z,79.04
2018-09-24T08:25:49.499Z,79.43
2018-09-24T08:26:49.490Z,79.14
2018-09-24T08:27:49.487Z,80.57
2018-09-24T08:28:49.505Z,82.14
2018-09-24T08:29:49.479Z,83.76
2018-09-24T08:30:49.477Z,83.95
2018-09-24T08:31:49.471Z,83.57
2018-09-24T08:32:49.475Z,84.86
2018-09-24T08:33:49.464Z,85.63
2018-09-24T08:34:49.464Z,85.53
2018-09-24T08:35:49.459Z,85.15
2018-09-24T08:36:49.454Z,85.82
2018-09-24T08:37:49.506Z,85.25
2018-09-24T08:38:49.446Z,85.25
2018-09-24T08:39:49.475Z,85.87
2018-09-24T08:40:49.449Z,86.10
2018-09-24T08:41:49.449Z,85.21
2018-09-24T08:42:49.517Z,85.87
2018-09-24T08:43:49.440Z,84.63
2018-09-24T08:44:49.448Z,85.68
2018-09-24T08:45:49.432Z,84.63
2018-09-24T08:46:49.416Z,83.96
2018-09-24T08:47:49.426Z,84.06
2018-09-24T08:48:49.409Z,83.77
2018-09-24T08:49:49.528Z,83.67
2018-09-24T08:50:49.402Z,83.58
2018-09-24T08:51:49.417Z,84.25
2018-09-24T08:52:49.391Z,83.67
2018-09-24T08:53:49.387Z,81.33
2018-09-24T08:54:49.423Z,80.91
2018-09-24T08:55:49.378Z,80.85
2018-09-24T08:56:49.472Z,78.91
2018-09-24T08:57:49.370Z,77.86
2018-09-24T08:58:49.367Z,77.95
2018-09-24T08:59:49.372Z,78.94
2018-09-24T09:00:49.379Z,79.90
2018-09-24T09:01:49.397Z,79.04
2018-09-24T09:02:49.441Z,78.47
2018-09-24T09:03:49.354Z,77.70
2018-09-24T09:04:49.353Z,77.03
2018-09-24T09:05:49.344Z,77.13
2018-09-24T09:06:49.350Z,77.51
2018-09-24T09:07:49.333Z,76.94
2018-09-24T09:08:51.299Z,78.03
2018-09-24T09:09:49.326Z,78.99
2018-09-24T09:10:49.327Z,78.31
2018-09-24T09:11:49.314Z,77.55
2018-09-24T09:12:49.312Z,76.94
2018-09-24T09:13:49.310Z,78.18
2018-09-24T09:14:49.307Z,78.85
2018-09-24T09:15:49.315Z,78.99
2018-09-24T09:16:49.301Z,79.33
2018-09-24T09:17:49.315Z,78.94
2018-09-24T09:18:50.257Z,79.52
2018-09-24T09:19:49.312Z,78.37
2018-09-24T09:20:49.287Z,78.09
2018-09-24T09:21:49.280Z,78.09
2018-09-24T09:22:49.287Z,78.56
2018-09-24T09:23:49.291Z,79.33
2018-09-24T09:24:49.267Z,79.14
2018-09-24T09:25:49.269Z,79.04
2018-09-24T09:26:49.268Z,79.04
2018-09-24T09:27:49.292Z,79.33
2018-09-24T09:28:50.854Z,77.80
2018-09-24T09:29:50.799Z,77.61
2018-09-24T09:30:49.244Z,78.03
2018-09-24T09:31:49.241Z,75.26
2018-09-24T09:32:49.240Z,74.49
2018-09-24T09:33:49.235Z,73.63
2018-09-24T09:34:49.230Z,74.21
2018-09-24T09:35:49.227Z,73.54
2018-09-24T09:36:49.257Z,71.82
2018-09-24T09:37:49.220Z,72.49
2018-09-24T09:38:49.214Z,72.39
2018-09-24T09:39:49.224Z,72.20
2018-09-24T09:40:49.207Z,72.01
2018-09-24T09:41:49.207Z,72.97
2018-09-24T09:42:49.750Z,73.44
2018-09-24T09:43:49.204Z,74.49
2018-09-24T09:44:49.193Z,74.30
2018-09-24T09:45:49.199Z,74.78
2018-09-24T09:46:49.249Z,74.98
2018-09-24T09:47:50.167Z,74.30
2018-09-24T09:48:50.337Z,73.54
2018-09-24T09:49:49.208Z,71.72
2018-09-24T09:50:49.174Z,72.01
2018-09-24T09:51:49.321Z,73.92
2018-09-24T09:52:49.170Z,73.16
2018-09-24T09:53:49.167Z,72.49
2018-09-24T09:54:49.161Z,71.82
2018-09-24T09:55:49.158Z,71.34
2018-09-24T09:56:49.157Z,72.20
2018-09-24T09:57:49.148Z,73.54
2018-09-24T09:58:49.144Z,71.34
2018-09-24T09:59:49.142Z,71.72
2018-09-24T10:00:49.137Z,71.06
2018-09-24T10:01:49.136Z,69.91
2018-09-24T10:02:49.137Z,70.29
2018-09-24T10:03:49.163Z,70.20
2018-09-24T10:04:49.188Z,70.77
2018-09-24T10:05:49.126Z,70.77
2018-09-24T10:06:49.119Z,70.71
2018-09-24T10:07:49.135Z,69.24
2018-09-24T10:08:49.113Z,69.82
2018-09-24T10:09:49.110Z,68.51
2018-09-24T10:10:49.103Z,69.09
2018-09-24T10:11:49.100Z,67.84
2018-09-24T10:12:49.099Z,67.65
2018-09-24T10:13:49.098Z,68.32
2018-09-24T10:14:49.090Z,68.13
2018-09-24T10:15:49.089Z,67.75
2018-09-24T10:16:49.112Z,68.80
2018-09-24T10:17:49.080Z,68.70
2018-09-24T10:18:49.079Z,68.80
2018-09-24T10:19:49.077Z,68.70
2018-09-24T10:20:49.069Z,68.80
2018-09-24T10:21:49.094Z,68.99
2018-09-24T10:22:49.157Z,68.04
2018-09-24T10:23:49.081Z,68.23
2018-09-24T10:24:49.057Z,68.13
2018-09-24T10:25:49.061Z,68.04
2018-09-24T10:26:49.053Z,67.84
2018-09-24T10:27:49.046Z,68.61
2018-09-24T10:28:49.043Z,68.61
2018-09-24T10:29:49.047Z,68.04
2018-09-24T10:30:49.040Z,67.46
2018-09-24T10:31:49.032Z,65.26
2018-09-24T10:32:49.033Z,64.69
2018-09-24T10:33:49.127Z,65.26
2018-09-24T10:34:49.025Z,65.26
2018-09-24T10:35:49.027Z,65.17
2018-09-24T10:36:49.023Z,64.98
2018-09-24T10:37:49.028Z,64.69
2018-09-24T10:38:49.017Z,64.88
2018-09-24T10:39:49.027Z,64.31
2018-09-24T10:40:49.004Z,63.64
2018-09-24T10:41:49.001Z,62.62
2018-09-24T10:42:48.998Z,62.62
2018-09-24T10:43:48.994Z,62.43
2018-09-24T10:44:48.991Z,62.24
2018-09-24T10:45:48.995Z,61.66
2018-09-24T10:46:48.986Z,61.92
2018-09-24T10:47:48.984Z,62.68
2018-09-24T10:48:48.982Z,62.40
2018-09-24T10:49:48.975Z,61.54
2018-09-24T10:50:49.051Z,61.25
2018-09-24T10:51:48.969Z,61.25
2018-09-24T10:52:48.991Z,61.25
2018-09-24T10:53:48.965Z,60.68
2018-09-24T10:54:48.965Z,60.68
2018-09-24T10:55:48.986Z,60.87
2018-09-24T10:56:48.953Z,60.77
2018-09-24T10:57:48.949Z,61.47
2018-09-24T10:58:48.948Z,61.47
2018-09-24T10:59:48.943Z,60.71
2018-09-24T11:00:48.940Z,60.13
2018-09-24T11:01:48.938Z,59.37
2018-09-24T11:02:48.936Z,58.83
2018-09-24T11:03:48.933Z,58.34
2018-09-24T11:04:48.942Z,56.72
2018-09-24T11:05:48.926Z,56.43
2018-09-24T11:06:48.923Z,56.15
2018-09-24T11:07:48.920Z,54.88
2018-09-24T11:08:48.915Z,54.68
2018-09-24T11:09:48.912Z,54.49
2018-09-24T11:10:48.916Z,53.63
2018-09-24T11:11:48.907Z,54.02
2018-09-24T11:12:48.906Z,54.68
2018-09-24T11:13:48.903Z,54.47
2018-09-24T11:14:48.971Z,54.49
2018-09-24T11:15:48.963Z,55.52
2018-09-24T11:16:49.059Z,55.52
2018-09-24T11:17:49.257Z,56.38
2018-09-24T11:18:48.889Z,57.33
2018-09-24T11:19:48.887Z,58.29
2018-09-24T11:20:48.886Z,58.48
2018-09-24T11:21:48.879Z,58.19
2018-09-24T11:22:48.879Z,59.63
2018-09-24T11:23:48.932Z,60.01
2018-09-24T11:24:48.872Z,60.49
2018-09-24T11:25:48.881Z,60.77
2018-09-24T11:26:48.866Z,61.16
2018-09-24T11:27:48.865Z,62.30
2018-09-24T11:28:48.884Z,62.11
2018-09-24T11:29:48.862Z,62.04
2018-09-24T11:30:48.856Z,60.71
2018-09-24T11:31:48.853Z,60.61
2018-09-24T11:32:48.849Z,59.56
2018-09-24T11:33:48.864Z,57.55
2018-09-24T11:34:48.843Z,58.86
2018-09-24T11:35:48.846Z,63.73
2018-09-24T11:36:48.843Z,65.55
2018-09-24T11:37:48.836Z,67.94
2018-09-24T11:38:48.833Z,69.72
2018-09-24T11:39:48.834Z,68.76
2018-09-24T11:40:48.824Z,70.48
2018-09-24T11:41:48.822Z,76.37
2018-09-24T11:42:48.820Z,78.56
2018-09-24T11:43:48.819Z,80.28
2018-09-24T11:44:48.823Z,80.76
2018-09-24T11:45:49.351Z,79.99
2018-09-24T11:46:48.856Z,79.90
2018-09-24T11:47:48.819Z,78.28
2018-09-24T11:48:48.799Z,78.85
2018-09-24T11:49:48.806Z,78.85
2018-09-24T11:50:48.792Z,79.67
2018-09-24T11:51:48.790Z,78.81
2018-09-24T11:52:48.785Z,79.86
2018-09-24T11:53:48.781Z,79.00
2018-09-24T11:54:48.779Z,80.24
2018-09-24T11:55:48.773Z,80.66
2018-09-24T11:56:48.769Z,82.09
2018-09-24T11:57:48.766Z,82.57
2018-09-24T11:58:48.764Z,83.53
2018-09-24T11:59:48.760Z,83.81
2018-09-24T12:00:48.756Z,82.57
2018-09-24T12:01:48.753Z,81.29
2018-09-24T12:02:48.750Z,83.11
2018-09-24T12:03:48.745Z,83.20
2018-09-24T12:04:48.753Z,82.53
2018-09-24T12:05:48.741Z,85.53
2018-09-24T12:06:48.736Z,84.48
2018-09-24T12:07:48.737Z,83.91
2018-09-24T12:08:48.769Z,83.05
2018-09-24T12:09:48.724Z,83.81
2018-09-24T12:10:48.720Z,83.34
2018-09-24T12:11:48.721Z,83.05
2018-09-24T12:12:48.714Z,82.67
2018-09-24T12:13:48.711Z,83.14
2018-09-24T12:14:48.707Z,86.39
2018-09-24T12:15:48.712Z,84.39
2018-09-24T12:16:48.699Z,83.76
2018-09-24T12:17:48.696Z,84.23
2018-09-24T12:18:48.695Z,87.48
2018-09-24T12:19:48.693Z,83.33
2018-09-24T12:20:48.686Z,83.04
2018-09-24T12:21:48.685Z,81.03
2018-09-24T12:22:48.684Z,81.32
2018-09-24T12:23:48.676Z,79.69
2018-09-24T12:24:48.675Z,79.12
2018-09-24T12:25:48.671Z,79.12
2018-09-24T12:26:48.669Z,78.55
2018-09-24T12:27:48.666Z,78.93
2018-09-24T12:28:48.661Z,79.22
2018-09-24T12:29:48.669Z,78.64
2018-09-24T12:30:48.662Z,77.87
2018-09-24T12:31:48.658Z,78.26
2018-09-24T12:32:48.650Z,79.02
2018-09-24T12:33:48.650Z,79.60
2018-09-24T12:34:48.664Z,80.84
2018-09-24T12:35:48.642Z,81.13
2018-09-24T12:36:48.638Z,80.70
2018-09-24T12:37:48.641Z,81.85
2018-09-24T12:38:48.634Z,82.32
2018-09-24T12:39:48.663Z,81.41
2018-09-24T12:40:48.629Z,79.08
2018-09-24T12:41:48.629Z,79.17
2018-09-24T12:42:48.623Z,80.04
2018-09-24T12:43:48.620Z,80.70
2018-09-24T12:44:48.618Z,80.22
2018-09-24T12:45:48.612Z,80.32
2018-09-24T12:46:48.608Z,79.79
2018-09-24T12:47:48.671Z,80.17
2018-09-24T12:48:48.605Z,79.79
2018-09-24T12:49:48.609Z,80.46
2018-09-24T12:50:48.597Z,81.41
2018-09-24T12:51:48.595Z,80.07
2018-09-24T12:52:48.591Z,80.93